sensor_id;sensor_type;location;lat;lon;timestamp;temperature;humidity
37974;DHT22;23796;51.458;7.000;2022-12-22T00:00:55;10.40;99.90
37974;DHT22;23796;51.458;7.000;2022-12-22T00:03:39;10.30;99.90
37974;DHT22;23796;51.458;7.000;2022-12-22T00:06:23;10.30;99.90
37974;DHT22;23796;51.458;7.000;2022-12-22T00:09:07;10.30;99.90
37974;DHT22;23796;51.458;7.000;2022-12-22T00:11:51;10.30;99.90
37974;DHT22;23796;51.458;7.000;2022-12-22T00:14:36;10.30;99.90
37974;DHT22;23796;51.458;7.000;2022-12-22T00:17:27;10.40;99.90
37974;DHT22;23796;51.458;7.000;2022-12-22T00:20:18;10.40;99.90
37974;DHT22;23796;51.458;7.000;2022-12-22T00:23:04;10.40;99.90
37974;DHT22;23796;51.458;7.000;2022-12-22T00:25:48;10.40;99.90
37974;DHT22;23796;51.458;7.000;2022-12-22T00:28:34;10.50;99.90
37974;DHT22;23796;51.458;7.000;2022-12-22T00:31:19;10.50;99.90
37974;DHT22;23796;51.458;7.000;2022-12-22T00:34:04;10.50;99.90
37974;DHT22;23796;51.458;7.000;2022-12-22T00:36:48;10.50;99.90
37974;DHT22;23796;51.458;7.000;2022-12-22T00:39:33;10.50;99.90
37974;DHT22;23796;51.458;7.000;2022-12-22T00:42:21;10.50;99.90
37974;DHT22;23796;51.458;7.000;2022-12-22T00:45:08;10.50;99.90
37974;DHT22;23796;51.458;7.000;2022-12-22T00:47:53;10.50;99.90
37974;DHT22;23796;51.458;7.000;2022-12-22T00:50:37;10.50;99.90
37974;DHT22;23796;51.458;7.000;2022-12-22T00:53:21;10.60;99.90
37974;DHT22;23796;51.458;7.000;2022-12-22T00:56:08;10.60;99.90
37974;DHT22;23796;51.458;7.000;2022-12-22T00:58:57;10.60;99.90
37974;DHT22;23796;51.458;7.000;2022-12-22T01:01:42;10.70;99.90
37974;DHT22;23796;51.458;7.000;2022-12-22T01:04:26;10.60;99.90
37974;DHT22;23796;51.458;7.000;2022-12-22T01:07:14;10.70;99.90
37974;DHT22;23796;51.458;7.000;2022-12-22T01:09:59;10.70;99.90
37974;DHT22;23796;51.458;7.000;2022-12-22T01:12:44;10.70;99.90
37974;DHT22;23796;51.458;7.000;2022-12-22T01:15:29;10.70;99.90
37974;DHT22;23796;51.458;7.000;2022-12-22T01:18:14;10.70;99.90
37974;DHT22;23796;51.458;7.000;2022-12-22T01:21:01;10.70;99.90
37974;DHT22;23796;51.458;7.000;2022-12-22T01:23:48;10.80;99.90
37974;DHT22;23796;51.458;7.000;2022-12-22T01:26:32;10.70;99.90
37974;DHT22;23796;51.458;7.000;2022-12-22T01:29:16;10.80;99.90
37974;DHT22;23796;51.458;7.000;2022-12-22T01:32:00;10.80;99.90
37974;DHT22;23796;51.458;7.000;2022-12-22T01:34:45;10.70;99.90
37974;DHT22;23796;51.458;7.000;2022-12-22T01:37:29;10.70;99.90
37974;DHT22;23796;51.458;7.000;2022-12-22T01:40:22;10.70;99.90
37974;DHT22;23796;51.458;7.000;2022-12-22T01:43:26;10.80;99.90
37974;DHT22;23796;51.458;7.000;2022-12-22T01:46:42;10.80;99.90
37974;DHT22;23796;51.458;7.000;2022-12-22T01:49:32;10.80;99.90
37974;DHT22;23796;51.458;7.000;2022-12-22T01:52:23;10.80;99.90
37974;DHT22;23796;51.458;7.000;2022-12-22T01:55:14;10.80;99.90
37974;DHT22;23796;51.458;7.000;2022-12-22T01:58:01;10.80;99.90
37974;DHT22;23796;51.458;7.000;2022-12-22T02:00:46;10.80;99.90
37974;DHT22;23796;51.458;7.000;2022-12-22T02:03:30;10.80;99.90
37974;DHT22;23796;51.458;7.000;2022-12-22T02:06:20;10.90;99.90
37974;DHT22;23796;51.458;7.000;2022-12-22T02:20:52;10.90;99.90
37974;DHT22;23796;51.458;7.000;2022-12-22T02:26:51;10.90;99.90
37974;DHT22;23796;51.458;7.000;2022-12-22T02:29:45;10.90;99.90
37974;DHT22;23796;51.458;7.000;2022-12-22T02:32:34;10.90;99.90
37974;DHT22;23796;51.458;7.000;2022-12-22T02:35:19;10.90;99.90
37974;DHT22;23796;51.458;7.000;2022-12-22T02:43:58;11.00;99.90
37974;DHT22;23796;51.458;7.000;2022-12-22T02:47:02;11.00;99.90
37974;DHT22;23796;51.458;7.000;2022-12-22T02:50:11;11.00;99.90
37974;DHT22;23796;51.458;7.000;2022-12-22T02:53:00;11.10;99.90
37974;DHT22;23796;51.458;7.000;2022-12-22T02:55:45;11.10;99.90
37974;DHT22;23796;51.458;7.000;2022-12-22T02:58:34;11.10;99.90
37974;DHT22;23796;51.458;7.000;2022-12-22T03:01:18;11.10;99.90
37974;DHT22;23796;51.458;7.000;2022-12-22T03:04:02;11.10;99.90
37974;DHT22;23796;51.458;7.000;2022-12-22T03:06:49;11.10;99.90
37974;DHT22;23796;51.458;7.000;2022-12-22T03:09:33;11.10;99.90
37974;DHT22;23796;51.458;7.000;2022-12-22T03:12:19;11.10;99.90
37974;DHT22;23796;51.458;7.000;2022-12-22T03:15:04;11.10;99.90
37974;DHT22;23796;51.458;7.000;2022-12-22T03:17:48;11.10;99.90
37974;DHT22;23796;51.458;7.000;2022-12-22T03:20:32;11.10;99.90
37974;DHT22;23796;51.458;7.000;2022-12-22T03:23:16;11.10;99.90
37974;DHT22;23796;51.458;7.000;2022-12-22T03:26:00;11.10;99.90
37974;DHT22;23796;51.458;7.000;2022-12-22T03:28:27;11.10;99.90
37974;DHT22;23796;51.458;7.000;2022-12-22T03:31:13;11.10;99.90
37974;DHT22;23796;51.458;7.000;2022-12-22T03:33:39;11.10;99.90
37974;DHT22;23796;51.458;7.000;2022-12-22T03:36:10;11.20;99.90
37974;DHT22;23796;51.458;7.000;2022-12-22T03:38:38;11.10;99.90
37974;DHT22;23796;51.458;7.000;2022-12-22T03:41:03;11.20;99.90
37974;DHT22;23796;51.458;7.000;2022-12-22T03:43:31;11.20;99.90
37974;DHT22;23796;51.458;7.000;2022-12-22T03:46:19;11.10;99.90
37974;DHT22;23796;51.458;7.000;2022-12-22T03:48:58;11.10;99.90
37974;DHT22;23796;51.458;7.000;2022-12-22T03:51:49;11.10;99.90
37974;DHT22;23796;51.458;7.000;2022-12-22T03:54:19;11.10;99.90
37974;DHT22;23796;51.458;7.000;2022-12-22T03:56:46;11.10;99.90
37974;DHT22;23796;51.458;7.000;2022-12-22T03:59:12;11.10;99.90
37974;DHT22;23796;51.458;7.000;2022-12-22T04:01:41;11.10;99.90
37974;DHT22;23796;51.458;7.000;2022-12-22T04:04:11;11.20;99.90
37974;DHT22;23796;51.458;7.000;2022-12-22T04:06:37;11.20;99.90
37974;DHT22;23796;51.458;7.000;2022-12-22T04:09:06;11.20;99.90
37974;DHT22;23796;51.458;7.000;2022-12-22T04:11:31;11.20;99.90
37974;DHT22;23796;51.458;7.000;2022-12-22T04:14:15;11.20;99.90
37974;DHT22;23796;51.458;7.000;2022-12-22T04:16:44;11.20;99.90
37974;DHT22;23796;51.458;7.000;2022-12-22T04:19:10;11.20;99.90
37974;DHT22;23796;51.458;7.000;2022-12-22T04:21:36;11.20;99.90
37974;DHT22;23796;51.458;7.000;2022-12-22T04:24:04;11.20;99.90
37974;DHT22;23796;51.458;7.000;2022-12-22T04:26:30;11.20;99.90
37974;DHT22;23796;51.458;7.000;2022-12-22T04:28:58;11.20;99.90
37974;DHT22;23796;51.458;7.000;2022-12-22T04:31:26;11.20;99.90
37974;DHT22;23796;51.458;7.000;2022-12-22T04:33:51;11.20;99.90
37974;DHT22;23796;51.458;7.000;2022-12-22T04:36:17;11.20;99.90
37974;DHT22;23796;51.458;7.000;2022-12-22T04:38:43;11.20;99.90
37974;DHT22;23796;51.458;7.000;2022-12-22T04:41:09;11.10;99.90
37974;DHT22;23796;51.458;7.000;2022-12-22T04:43:35;11.20;99.90
37974;DHT22;23796;51.458;7.000;2022-12-22T04:46:03;11.10;99.90
37974;DHT22;23796;51.458;7.000;2022-12-22T04:48:30;11.20;99.90
37974;DHT22;23796;51.458;7.000;2022-12-22T04:50:58;11.20;99.90
37974;DHT22;23796;51.458;7.000;2022-12-22T04:53:27;11.20;99.90
37974;DHT22;23796;51.458;7.000;2022-12-22T04:55:59;11.20;99.90
37974;DHT22;23796;51.458;7.000;2022-12-22T04:58:28;11.20;99.90
37974;DHT22;23796;51.458;7.000;2022-12-22T05:00:57;11.20;99.90
37974;DHT22;23796;51.458;7.000;2022-12-22T05:03:31;11.10;99.90
37974;DHT22;23796;51.458;7.000;2022-12-22T05:05:57;11.10;99.90
37974;DHT22;23796;51.458;7.000;2022-12-22T05:08:22;11.10;99.90
37974;DHT22;23796;51.458;7.000;2022-12-22T05:10:48;11.10;99.90
37974;DHT22;23796;51.458;7.000;2022-12-22T05:13:13;11.10;99.90
37974;DHT22;23796;51.458;7.000;2022-12-22T05:15:41;11.10;99.90
37974;DHT22;23796;51.458;7.000;2022-12-22T05:18:07;11.10;99.90
37974;DHT22;23796;51.458;7.000;2022-12-22T05:20:34;11.10;99.90
37974;DHT22;23796;51.458;7.000;2022-12-22T05:23:00;11.10;99.90
37974;DHT22;23796;51.458;7.000;2022-12-22T05:25:26;11.10;99.90
37974;DHT22;23796;51.458;7.000;2022-12-22T05:27:51;11.10;99.90
37974;DHT22;23796;51.458;7.000;2022-12-22T05:30:21;11.10;99.90
37974;DHT22;23796;51.458;7.000;2022-12-22T05:32:47;11.10;99.90
37974;DHT22;23796;51.458;7.000;2022-12-22T05:35:13;11.10;99.90
37974;DHT22;23796;51.458;7.000;2022-12-22T05:37:39;11.10;99.90
37974;DHT22;23796;51.458;7.000;2022-12-22T05:40:05;11.10;99.90
37974;DHT22;23796;51.458;7.000;2022-12-22T05:42:32;11.10;99.90
37974;DHT22;23796;51.458;7.000;2022-12-22T05:45:17;11.10;99.90
37974;DHT22;23796;51.458;7.000;2022-12-22T05:47:45;11.10;99.90
37974;DHT22;23796;51.458;7.000;2022-12-22T05:50:15;11.10;99.90
37974;DHT22;23796;51.458;7.000;2022-12-22T05:52:41;11.20;99.90
37974;DHT22;23796;51.458;7.000;2022-12-22T05:55:08;11.20;99.90
37974;DHT22;23796;51.458;7.000;2022-12-22T05:57:34;11.20;99.90
37974;DHT22;23796;51.458;7.000;2022-12-22T06:00:00;11.20;99.90
37974;DHT22;23796;51.458;7.000;2022-12-22T06:02:30;11.30;99.90
37974;DHT22;23796;51.458;7.000;2022-12-22T06:04:56;11.30;99.90
37974;DHT22;23796;51.458;7.000;2022-12-22T06:07:26;11.30;99.90
37974;DHT22;23796;51.458;7.000;2022-12-22T06:09:52;11.30;99.90
37974;DHT22;23796;51.458;7.000;2022-12-22T06:12:18;11.10;99.90
37974;DHT22;23796;51.458;7.000;2022-12-22T06:14:46;11.00;99.90
37974;DHT22;23796;51.458;7.000;2022-12-22T06:17:12;11.00;99.90
37974;DHT22;23796;51.458;7.000;2022-12-22T06:19:37;11.10;99.90
37974;DHT22;23796;51.458;7.000;2022-12-22T06:22:05;11.10;99.90
37974;DHT22;23796;51.458;7.000;2022-12-22T06:24:31;11.00;99.90
37974;DHT22;23796;51.458;7.000;2022-12-22T06:26:59;11.00;99.90
37974;DHT22;23796;51.458;7.000;2022-12-22T06:29:24;11.00;99.90
37974;DHT22;23796;51.458;7.000;2022-12-22T06:31:50;11.00;99.90
37974;DHT22;23796;51.458;7.000;2022-12-22T06:34:16;11.00;99.90
37974;DHT22;23796;51.458;7.000;2022-12-22T06:36:49;10.90;99.90
37974;DHT22;23796;51.458;7.000;2022-12-22T06:39:17;10.90;99.90
37974;DHT22;23796;51.458;7.000;2022-12-22T06:41:43;10.90;99.90
37974;DHT22;23796;51.458;7.000;2022-12-22T06:44:27;10.90;99.90
37974;DHT22;23796;51.458;7.000;2022-12-22T06:46:58;10.80;99.90
37974;DHT22;23796;51.458;7.000;2022-12-22T06:49:24;10.80;99.90
37974;DHT22;23796;51.458;7.000;2022-12-22T06:51:49;10.80;99.90
37974;DHT22;23796;51.458;7.000;2022-12-22T06:54:18;10.70;99.90
37974;DHT22;23796;51.458;7.000;2022-12-22T06:56:43;10.70;99.90
37974;DHT22;23796;51.458;7.000;2022-12-22T06:59:09;10.70;99.90
37974;DHT22;23796;51.458;7.000;2022-12-22T07:01:34;10.70;99.90
37974;DHT22;23796;51.458;7.000;2022-12-22T07:04:03;10.70;99.90
37974;DHT22;23796;51.458;7.000;2022-12-22T07:06:28;10.70;99.90
37974;DHT22;23796;51.458;7.000;2022-12-22T07:08:54;10.60;99.90
37974;DHT22;23796;51.458;7.000;2022-12-22T07:11:24;10.60;99.90
37974;DHT22;23796;51.458;7.000;2022-12-22T07:13:54;10.60;99.90
37974;DHT22;23796;51.458;7.000;2022-12-22T07:16:20;10.60;99.90
37974;DHT22;23796;51.458;7.000;2022-12-22T07:18:46;10.60;99.90
37974;DHT22;23796;51.458;7.000;2022-12-22T07:21:12;10.50;99.90
37974;DHT22;23796;51.458;7.000;2022-12-22T07:23:39;10.50;99.90
37974;DHT22;23796;51.458;7.000;2022-12-22T07:26:06;10.50;99.90
37974;DHT22;23796;51.458;7.000;2022-12-22T07:28:36;10.50;99.90
37974;DHT22;23796;51.458;7.000;2022-12-22T07:31:02;10.50;99.90
37974;DHT22;23796;51.458;7.000;2022-12-22T07:33:28;10.40;99.90
37974;DHT22;23796;51.458;7.000;2022-12-22T07:36:07;10.50;99.90
37974;DHT22;23796;51.458;7.000;2022-12-22T07:38:35;10.40;99.90
37974;DHT22;23796;51.458;7.000;2022-12-22T07:41:01;10.40;99.90
37974;DHT22;23796;51.458;7.000;2022-12-22T07:43:26;10.40;99.90
37974;DHT22;23796;51.458;7.000;2022-12-22T07:45:52;10.40;99.90
37974;DHT22;23796;51.458;7.000;2022-12-22T07:48:17;10.30;99.90
37974;DHT22;23796;51.458;7.000;2022-12-22T07:51:04;10.30;99.90
37974;DHT22;23796;51.458;7.000;2022-12-22T07:53:31;10.30;99.90
37974;DHT22;23796;51.458;7.000;2022-12-22T07:56:01;10.30;99.90
37974;DHT22;23796;51.458;7.000;2022-12-22T07:58:26;10.20;99.90
37974;DHT22;23796;51.458;7.000;2022-12-22T08:00:59;10.20;99.90
37974;DHT22;23796;51.458;7.000;2022-12-22T08:03:25;10.20;99.90
37974;DHT22;23796;51.458;7.000;2022-12-22T08:05:50;10.20;99.90
37974;DHT22;23796;51.458;7.000;2022-12-22T08:08:16;10.30;99.90
37974;DHT22;23796;51.458;7.000;2022-12-22T08:10:42;10.20;99.90
37974;DHT22;23796;51.458;7.000;2022-12-22T08:13:07;10.20;99.90
37974;DHT22;23796;51.458;7.000;2022-12-22T08:15:33;10.20;99.90
37974;DHT22;23796;51.458;7.000;2022-12-22T08:17:58;10.10;99.90
37974;DHT22;23796;51.458;7.000;2022-12-22T08:20:26;10.00;99.90
37974;DHT22;23796;51.458;7.000;2022-12-22T08:22:55;10.00;99.90
37974;DHT22;23796;51.458;7.000;2022-12-22T08:25:23;10.00;99.90
37974;DHT22;23796;51.458;7.000;2022-12-22T08:27:51;10.00;99.90
37974;DHT22;23796;51.458;7.000;2022-12-22T08:30:18;10.00;99.90
37974;DHT22;23796;51.458;7.000;2022-12-22T08:32:48;10.00;99.90
37974;DHT22;23796;51.458;7.000;2022-12-22T08:35:14;10.00;99.90
37974;DHT22;23796;51.458;7.000;2022-12-22T08:37:41;10.00;99.90
37974;DHT22;23796;51.458;7.000;2022-12-22T08:40:17;9.90;99.90
37974;DHT22;23796;51.458;7.000;2022-12-22T08:42:46;9.90;99.90
37974;DHT22;23796;51.458;7.000;2022-12-22T08:45:14;9.90;99.90
37974;DHT22;23796;51.458;7.000;2022-12-22T08:47:42;9.90;99.90
37974;DHT22;23796;51.458;7.000;2022-12-22T08:50:09;10.00;99.90
37974;DHT22;23796;51.458;7.000;2022-12-22T08:52:35;10.00;99.90
37974;DHT22;23796;51.458;7.000;2022-12-22T08:55:00;10.00;99.90
37974;DHT22;23796;51.458;7.000;2022-12-22T08:57:28;10.00;99.90
37974;DHT22;23796;51.458;7.000;2022-12-22T08:59:54;10.00;99.90
37974;DHT22;23796;51.458;7.000;2022-12-22T09:02:22;10.00;99.90
37974;DHT22;23796;51.458;7.000;2022-12-22T09:04:47;10.00;99.90
37974;DHT22;23796;51.458;7.000;2022-12-22T09:07:13;10.00;99.90
37974;DHT22;23796;51.458;7.000;2022-12-22T09:09:39;10.00;99.90
37974;DHT22;23796;51.458;7.000;2022-12-22T09:12:04;10.10;99.90
37974;DHT22;23796;51.458;7.000;2022-12-22T09:14:32;10.10;99.90
37974;DHT22;23796;51.458;7.000;2022-12-22T09:17:01;10.10;99.90
37974;DHT22;23796;51.458;7.000;2022-12-22T09:19:27;10.20;99.90
37974;DHT22;23796;51.458;7.000;2022-12-22T09:21:53;10.20;99.90
37974;DHT22;23796;51.458;7.000;2022-12-22T09:24:21;10.40;99.90
37974;DHT22;23796;51.458;7.000;2022-12-22T09:26:47;10.40;99.90
37974;DHT22;23796;51.458;7.000;2022-12-22T09:29:15;10.60;99.90
37974;DHT22;23796;51.458;7.000;2022-12-22T09:31:48;10.60;99.90
37974;DHT22;23796;51.458;7.000;2022-12-22T09:34:14;10.60;99.90
37974;DHT22;23796;51.458;7.000;2022-12-22T09:36:40;10.60;99.90
37974;DHT22;23796;51.458;7.000;2022-12-22T09:39:07;10.50;99.90
37974;DHT22;23796;51.458;7.000;2022-12-22T09:44:25;10.40;99.90
37974;DHT22;23796;51.458;7.000;2022-12-22T09:46:55;10.40;99.90
37974;DHT22;23796;51.458;7.000;2022-12-22T09:49:24;10.40;99.90
37974;DHT22;23796;51.458;7.000;2022-12-22T09:51:55;10.40;99.90
37974;DHT22;23796;51.458;7.000;2022-12-22T09:54:22;10.30;99.90
37974;DHT22;23796;51.458;7.000;2022-12-22T09:56:48;10.30;99.90
37974;DHT22;23796;51.458;7.000;2022-12-22T09:59:16;10.30;99.90
37974;DHT22;23796;51.458;7.000;2022-12-22T10:02:14;10.30;99.90
37974;DHT22;23796;51.458;7.000;2022-12-22T10:05:04;10.30;99.90
37974;DHT22;23796;51.458;7.000;2022-12-22T10:07:36;10.30;99.90
37974;DHT22;23796;51.458;7.000;2022-12-22T10:10:27;10.20;99.90
37974;DHT22;23796;51.458;7.000;2022-12-22T10:12:58;10.10;99.90
37974;DHT22;23796;51.458;7.000;2022-12-22T10:15:34;10.10;99.90
37974;DHT22;23796;51.458;7.000;2022-12-22T10:18:11;10.00;99.90
37974;DHT22;23796;51.458;7.000;2022-12-22T10:20:41;10.00;99.90
37974;DHT22;23796;51.458;7.000;2022-12-22T10:23:19;10.00;99.90
37974;DHT22;23796;51.458;7.000;2022-12-22T10:26:25;10.00;99.90
37974;DHT22;23796;51.458;7.000;2022-12-22T10:29:06;9.90;99.90
37974;DHT22;23796;51.458;7.000;2022-12-22T10:31:53;9.90;99.90
37974;DHT22;23796;51.458;7.000;2022-12-22T10:34:20;9.80;99.90
37974;DHT22;23796;51.458;7.000;2022-12-22T10:36:48;9.90;99.90
37974;DHT22;23796;51.458;7.000;2022-12-22T10:39:26;9.90;99.90
37974;DHT22;23796;51.458;7.000;2022-12-22T10:41:55;9.90;99.90
37974;DHT22;23796;51.458;7.000;2022-12-22T10:44:24;9.90;99.90
37974;DHT22;23796;51.458;7.000;2022-12-22T10:46:56;9.90;99.90
37974;DHT22;23796;51.458;7.000;2022-12-22T10:49:35;9.80;99.90
37974;DHT22;23796;51.458;7.000;2022-12-22T10:54:43;9.90;99.90
37974;DHT22;23796;51.458;7.000;2022-12-22T10:59:56;10.10;99.90
37974;DHT22;23796;51.458;7.000;2022-12-22T11:04:49;10.10;99.90
37974;DHT22;23796;51.458;7.000;2022-12-22T11:07:18;10.10;99.90
37974;DHT22;23796;51.458;7.000;2022-12-22T11:09:44;10.20;99.90
37974;DHT22;23796;51.458;7.000;2022-12-22T11:14:56;10.60;99.90
37974;DHT22;23796;51.458;7.000;2022-12-22T11:20:44;11.00;99.90
37974;DHT22;23796;51.458;7.000;2022-12-22T11:31:46;10.40;99.90
37974;DHT22;23796;51.458;7.000;2022-12-22T11:34:41;10.40;99.90
37974;DHT22;23796;51.458;7.000;2022-12-22T11:37:25;10.20;99.90
37974;DHT22;23796;51.458;7.000;2022-12-22T11:56:39;10.00;99.90
37974;DHT22;23796;51.458;7.000;2022-12-22T12:04:36;9.90;99.90
37974;DHT22;23796;51.458;7.000;2022-12-22T12:10:21;9.90;99.90
37974;DHT22;23796;51.458;7.000;2022-12-22T12:15:40;9.90;99.90
37974;DHT22;23796;51.458;7.000;2022-12-22T12:24:03;10.40;99.90
37974;DHT22;23796;51.458;7.000;2022-12-22T12:29:19;10.80;99.90
37974;DHT22;23796;51.458;7.000;2022-12-22T12:34:16;10.50;99.90
37974;DHT22;23796;51.458;7.000;2022-12-22T12:42:33;10.60;99.90
37974;DHT22;23796;51.458;7.000;2022-12-22T12:45:02;10.50;99.90
37974;DHT22;23796;51.458;7.000;2022-12-22T12:47:32;10.50;99.90
37974;DHT22;23796;51.458;7.000;2022-12-22T12:55:31;10.30;99.90
37974;DHT22;23796;51.458;7.000;2022-12-22T12:57:59;10.40;99.90
37974;DHT22;23796;51.458;7.000;2022-12-22T13:23:33;10.90;99.90
37974;DHT22;23796;51.458;7.000;2022-12-22T13:26:21;10.90;99.90
37974;DHT22;23796;51.458;7.000;2022-12-22T13:28:58;10.80;99.90
37974;DHT22;23796;51.458;7.000;2022-12-22T13:31:33;10.80;99.90
37974;DHT22;23796;51.458;7.000;2022-12-22T13:36:54;11.00;99.90
37974;DHT22;23796;51.458;7.000;2022-12-22T13:39:26;11.10;99.90
37974;DHT22;23796;51.458;7.000;2022-12-22T13:41:54;11.10;99.90
37974;DHT22;23796;51.458;7.000;2022-12-22T13:44:27;11.00;99.90
37974;DHT22;23796;51.458;7.000;2022-12-22T13:46:54;10.90;99.90
37974;DHT22;23796;51.458;7.000;2022-12-22T13:49:25;10.60;99.90
37974;DHT22;23796;51.458;7.000;2022-12-22T13:51:54;10.50;99.90
37974;DHT22;23796;51.458;7.000;2022-12-22T13:54:26;10.40;99.90
37974;DHT22;23796;51.458;7.000;2022-12-22T13:56:55;10.40;99.90
37974;DHT22;23796;51.458;7.000;2022-12-22T13:59:35;10.40;99.90
37974;DHT22;23796;51.458;7.000;2022-12-22T14:02:14;10.40;99.90
37974;DHT22;23796;51.458;7.000;2022-12-22T14:04:43;10.30;99.90
37974;DHT22;23796;51.458;7.000;2022-12-22T14:07:10;10.30;99.90
37974;DHT22;23796;51.458;7.000;2022-12-22T14:09:36;10.40;99.90
37974;DHT22;23796;51.458;7.000;2022-12-22T14:12:17;10.40;99.90
37974;DHT22;23796;51.458;7.000;2022-12-22T14:14:44;10.30;99.90
37974;DHT22;23796;51.458;7.000;2022-12-22T14:25:43;10.50;99.90
37974;DHT22;23796;51.458;7.000;2022-12-22T14:30:49;10.60;99.90
37974;DHT22;23796;51.458;7.000;2022-12-22T14:36:18;10.70;99.90
37974;DHT22;23796;51.458;7.000;2022-12-22T14:39:00;10.80;99.90
37974;DHT22;23796;51.458;7.000;2022-12-22T14:41:40;10.80;99.90
37974;DHT22;23796;51.458;7.000;2022-12-22T14:44:54;10.80;99.90
37974;DHT22;23796;51.458;7.000;2022-12-22T14:54:52;10.70;99.90
37974;DHT22;23796;51.458;7.000;2022-12-22T14:57:38;10.70;99.90
37974;DHT22;23796;51.458;7.000;2022-12-22T15:00:48;10.60;99.90
37974;DHT22;23796;51.458;7.000;2022-12-22T15:03:01;10.70;99.90
37974;DHT22;23796;51.458;7.000;2022-12-22T15:05:31;10.70;99.90
37974;DHT22;23796;51.458;7.000;2022-12-22T15:07:59;10.70;99.90
37974;DHT22;23796;51.458;7.000;2022-12-22T15:10:37;10.70;99.90
37974;DHT22;23796;51.458;7.000;2022-12-22T15:13:05;10.60;99.90
37974;DHT22;23796;51.458;7.000;2022-12-22T15:15:34;10.60;99.90
37974;DHT22;23796;51.458;7.000;2022-12-22T15:18:00;10.50;99.90
37974;DHT22;23796;51.458;7.000;2022-12-22T15:20:29;10.40;99.90
37974;DHT22;23796;51.458;7.000;2022-12-22T15:22:55;10.30;99.90
37974;DHT22;23796;51.458;7.000;2022-12-22T15:25:23;10.20;99.90
37974;DHT22;23796;51.458;7.000;2022-12-22T15:27:49;10.30;99.90
37974;DHT22;23796;51.458;7.000;2022-12-22T15:30:19;10.20;99.90
37974;DHT22;23796;51.458;7.000;2022-12-22T15:32:45;10.30;99.90
37974;DHT22;23796;51.458;7.000;2022-12-22T15:35:28;10.30;99.90
37974;DHT22;23796;51.458;7.000;2022-12-22T15:37:54;10.20;99.90
37974;DHT22;23796;51.458;7.000;2022-12-22T15:40:22;10.30;99.90
37974;DHT22;23796;51.458;7.000;2022-12-22T15:42:48;10.20;99.90
37974;DHT22;23796;51.458;7.000;2022-12-22T15:45:15;10.20;99.90
37974;DHT22;23796;51.458;7.000;2022-12-22T15:47:43;10.20;99.90
37974;DHT22;23796;51.458;7.000;2022-12-22T15:50:36;10.10;99.90
37974;DHT22;23796;51.458;7.000;2022-12-22T15:53:04;10.10;99.90
37974;DHT22;23796;51.458;7.000;2022-12-22T15:55:30;10.10;99.90
37974;DHT22;23796;51.458;7.000;2022-12-22T15:57:57;10.10;99.90
37974;DHT22;23796;51.458;7.000;2022-12-22T16:00:24;10.20;99.90
37974;DHT22;23796;51.458;7.000;2022-12-22T16:02:52;10.30;99.90
37974;DHT22;23796;51.458;7.000;2022-12-22T16:05:17;10.30;99.90
37974;DHT22;23796;51.458;7.000;2022-12-22T16:07:43;10.40;99.90
37974;DHT22;23796;51.458;7.000;2022-12-22T16:10:24;10.40;99.90
37974;DHT22;23796;51.458;7.000;2022-12-22T16:12:52;10.50;99.90
37974;DHT22;23796;51.458;7.000;2022-12-22T16:15:22;10.40;99.90
37974;DHT22;23796;51.458;7.000;2022-12-22T16:17:47;10.40;99.90
37974;DHT22;23796;51.458;7.000;2022-12-22T16:20:16;10.40;99.90
37974;DHT22;23796;51.458;7.000;2022-12-22T16:22:45;10.30;99.90
37974;DHT22;23796;51.458;7.000;2022-12-22T16:25:16;10.40;99.90
37974;DHT22;23796;51.458;7.000;2022-12-22T16:27:45;10.40;99.90
37974;DHT22;23796;51.458;7.000;2022-12-22T16:30:24;10.40;99.90
37974;DHT22;23796;51.458;7.000;2022-12-22T16:32:53;10.40;99.90
37974;DHT22;23796;51.458;7.000;2022-12-22T16:35:24;10.40;99.90
37974;DHT22;23796;51.458;7.000;2022-12-22T16:37:50;10.40;99.90
37974;DHT22;23796;51.458;7.000;2022-12-22T16:40:19;10.40;99.90
37974;DHT22;23796;51.458;7.000;2022-12-22T16:45:27;10.30;99.90
37974;DHT22;23796;51.458;7.000;2022-12-22T16:48:03;10.30;99.90
37974;DHT22;23796;51.458;7.000;2022-12-22T16:50:29;10.20;99.90
37974;DHT22;23796;51.458;7.000;2022-12-22T16:52:59;10.20;99.90
37974;DHT22;23796;51.458;7.000;2022-12-22T16:55:26;10.20;99.90
37974;DHT22;23796;51.458;7.000;2022-12-22T16:57:51;10.20;99.90
37974;DHT22;23796;51.458;7.000;2022-12-22T17:00:19;10.20;99.90
37974;DHT22;23796;51.458;7.000;2022-12-22T17:02:50;10.20;99.90
37974;DHT22;23796;51.458;7.000;2022-12-22T17:05:28;10.20;99.90
37974;DHT22;23796;51.458;7.000;2022-12-22T17:07:55;10.20;99.90
37974;DHT22;23796;51.458;7.000;2022-12-22T17:10:24;10.10;99.90
37974;DHT22;23796;51.458;7.000;2022-12-22T17:12:52;10.10;99.90
37974;DHT22;23796;51.458;7.000;2022-12-22T17:15:20;10.10;99.90
37974;DHT22;23796;51.458;7.000;2022-12-22T17:17:47;10.10;99.90
37974;DHT22;23796;51.458;7.000;2022-12-22T17:20:17;10.10;99.90
37974;DHT22;23796;51.458;7.000;2022-12-22T17:22:52;10.00;99.90
37974;DHT22;23796;51.458;7.000;2022-12-22T17:25:24;10.00;99.90
37974;DHT22;23796;51.458;7.000;2022-12-22T17:27:51;10.00;99.90
37974;DHT22;23796;51.458;7.000;2022-12-22T17:30:18;9.90;99.90
37974;DHT22;23796;51.458;7.000;2022-12-22T17:32:45;10.00;99.90
37974;DHT22;23796;51.458;7.000;2022-12-22T17:35:18;10.00;99.90
37974;DHT22;23796;51.458;7.000;2022-12-22T17:37:46;10.00;99.90
37974;DHT22;23796;51.458;7.000;2022-12-22T17:42:46;10.00;99.90
37974;DHT22;23796;51.458;7.000;2022-12-22T17:45:14;10.00;99.90
37974;DHT22;23796;51.458;7.000;2022-12-22T17:47:40;10.00;99.90
37974;DHT22;23796;51.458;7.000;2022-12-22T17:50:09;10.00;99.90
37974;DHT22;23796;51.458;7.000;2022-12-22T17:52:36;10.00;99.90
37974;DHT22;23796;51.458;7.000;2022-12-22T17:55:03;10.10;99.90
37974;DHT22;23796;51.458;7.000;2022-12-22T17:57:35;10.00;99.90
37974;DHT22;23796;51.458;7.000;2022-12-22T18:00:01;10.10;99.90
37974;DHT22;23796;51.458;7.000;2022-12-22T18:02:26;10.00;99.90
37974;DHT22;23796;51.458;7.000;2022-12-22T18:04:53;10.10;99.90
37974;DHT22;23796;51.458;7.000;2022-12-22T18:07:23;10.10;99.90
37974;DHT22;23796;51.458;7.000;2022-12-22T18:09:49;10.10;99.90
37974;DHT22;23796;51.458;7.000;2022-12-22T18:12:20;10.10;99.90
37974;DHT22;23796;51.458;7.000;2022-12-22T18:14:47;10.10;99.90
37974;DHT22;23796;51.458;7.000;2022-12-22T18:17:21;10.10;99.90
37974;DHT22;23796;51.458;7.000;2022-12-22T18:19:50;10.10;99.90
37974;DHT22;23796;51.458;7.000;2022-12-22T18:22:21;10.10;99.90
37974;DHT22;23796;51.458;7.000;2022-12-22T18:24:47;10.20;99.90
37974;DHT22;23796;51.458;7.000;2022-12-22T18:27:14;10.20;99.90
37974;DHT22;23796;51.458;7.000;2022-12-22T18:29:40;10.30;99.90
37974;DHT22;23796;51.458;7.000;2022-12-22T18:32:06;10.30;99.90
37974;DHT22;23796;51.458;7.000;2022-12-22T18:34:34;10.20;99.90
37974;DHT22;23796;51.458;7.000;2022-12-22T18:37:01;10.30;99.90